createdAt,value
2023-04-27T00:00:11.863Z,3.10
2023-04-27T00:05:16.622Z,2.55
2023-04-27T00:10:19.958Z,2.53
2023-04-27T00:15:24.115Z,2.70
2023-04-27T00:20:27.802Z,3.13
2023-04-27T00:25:31.036Z,3.50
2023-04-27T00:30:34.066Z,3.40
2023-04-27T00:35:37.205Z,3.53
2023-04-27T00:40:41.067Z,3.30
2023-04-27T00:45:45.946Z,4.03
2023-04-27T00:50:49.583Z,3.00
2023-04-27T00:55:52.655Z,3.60
2023-04-27T01:00:57.210Z,3.60
2023-04-27T01:06:01.986Z,3.58
2023-04-27T01:11:05.810Z,3.50
2023-04-27T01:16:09.402Z,2.97
2023-04-27T01:21:16.141Z,3.22
2023-04-27T01:26:20.142Z,2.80
2023-04-27T01:31:25.062Z,2.95
2023-04-27T01:36:32.633Z,2.75
2023-04-27T01:41:39.407Z,2.92
2023-04-27T01:46:43.368Z,3.07
2023-04-27T01:51:47.243Z,3.33
2023-04-27T01:56:53.469Z,2.50
2023-04-27T02:01:56.992Z,2.85
2023-04-27T02:07:01.112Z,3.10
2023-04-27T02:12:06.454Z,2.25
2023-04-27T02:17:09.893Z,3.08
2023-04-27T02:22:14.027Z,2.65
2023-04-27T02:27:17.234Z,2.70
2023-04-27T02:32:21.311Z,2.15
2023-04-27T02:37:24.466Z,2.38
2023-04-27T02:42:27.596Z,2.20
2023-04-27T02:47:31.793Z,2.75
2023-04-27T02:52:36.006Z,2.00
2023-04-27T02:57:39.519Z,2.97
2023-04-27T03:02:43.833Z,2.38
2023-04-27T03:07:47.350Z,1.83
2023-04-27T03:12:51.226Z,2.33
2023-04-27T03:17:55.169Z,1.95
2023-04-27T03:22:59.144Z,2.53
2023-04-27T03:28:02.752Z,2.33
2023-04-27T03:33:06.100Z,2.30
2023-04-27T03:38:09.530Z,2.10
2023-04-27T03:43:12.573Z,1.98
2023-04-27T03:48:16.849Z,1.58
2023-04-27T03:53:21.063Z,1.83
2023-04-27T03:58:25.724Z,1.85
2023-04-27T04:03:50.998Z,2.03
2023-04-27T04:08:55.096Z,2.10
2023-04-27T04:13:59.224Z,1.88
2023-04-27T04:19:03.194Z,1.58
2023-04-27T04:24:08.030Z,1.45
2023-04-27T04:29:11.595Z,1.42
2023-04-27T04:34:16.118Z,1.40
2023-04-27T04:39:23.298Z,1.65
2023-04-27T04:44:27.072Z,1.13
2023-04-27T04:49:30.714Z,1.17
2023-04-27T04:54:34.724Z,1.63
2023-04-27T04:59:39.006Z,1.48
2023-04-27T05:04:42.980Z,1.45
2023-04-27T05:09:46.724Z,1.60
2023-04-27T05:14:51.997Z,0.93
2023-04-27T05:19:55.616Z,1.00
2023-04-27T05:24:59.452Z,1.00
2023-04-27T05:30:02.856Z,0.95
2023-04-27T05:35:06.313Z,1.08
2023-04-27T05:40:10.048Z,0.70
2023-04-27T05:45:13.944Z,0.88
2023-04-27T05:50:17.581Z,0.70
2023-04-27T05:55:21.942Z,0.80
2023-04-27T06:00:25.706Z,1.02
2023-04-27T06:05:29.149Z,1.10
2023-04-27T06:10:34.600Z,0.80
2023-04-27T06:15:38.027Z,1.10
2023-04-27T06:20:43.197Z,1.75
2023-04-27T06:25:46.958Z,1.50
2023-04-27T06:30:50.606Z,1.00
2023-04-27T06:35:54.349Z,1.00
2023-04-27T06:40:58.264Z,0.70
2023-04-27T06:46:02.029Z,0.90
2023-04-27T06:51:05.968Z,1.13
2023-04-27T06:56:12.105Z,1.20
2023-04-27T07:01:16.260Z,1.00
2023-04-27T07:06:19.881Z,1.60
2023-04-27T07:11:23.976Z,1.13
2023-04-27T07:16:28.637Z,1.50
2023-04-27T07:21:32.087Z,1.00
2023-04-27T07:26:35.314Z,1.20
2023-04-27T07:31:38.554Z,0.93
2023-04-27T07:36:42.200Z,0.65
2023-04-27T07:41:45.660Z,0.98
2023-04-27T07:46:49.659Z,0.68
2023-04-27T07:51:53.155Z,1.00
2023-04-27T07:56:57.583Z,0.80
2023-04-27T08:02:17.704Z,1.05
2023-04-27T08:07:23.414Z,1.40
2023-04-27T08:12:26.874Z,2.28
2023-04-27T08:17:31.375Z,1.70
2023-04-27T08:22:35.111Z,1.65
2023-04-27T08:27:41.311Z,1.23
2023-04-27T08:32:45.357Z,1.50
2023-04-27T08:37:48.891Z,1.48
2023-04-27T08:42:57.069Z,1.40
2023-04-27T08:48:01.801Z,1.58
2023-04-27T08:53:05.974Z,1.67
2023-04-27T08:58:09.928Z,2.10
2023-04-27T09:03:23.708Z,1.50
2023-04-27T09:08:26.912Z,1.50
2023-04-27T09:13:37.002Z,1.17
2023-04-27T09:18:43.915Z,1.52
2023-04-27T09:23:47.834Z,1.88
2023-04-27T09:28:53.148Z,1.42
2023-04-27T09:33:57.019Z,2.30
2023-04-27T09:39:05.531Z,1.83
2023-04-27T09:44:09.012Z,2.15
2023-04-27T09:49:14.397Z,1.58
2023-04-27T09:54:18.387Z,2.03
2023-04-27T09:59:46.200Z,1.88
2023-04-27T10:04:49.162Z,1.80
2023-04-27T10:09:52.848Z,1.10
2023-04-27T10:14:58.864Z,1.85
2023-04-27T10:20:04.900Z,2.53
2023-04-27T10:25:17.625Z,1.77
2023-04-27T10:30:23.024Z,1.75
2023-04-27T10:35:41.093Z,1.27
2023-04-27T10:41:01.825Z,1.88
2023-04-27T10:46:09.234Z,1.55
2023-04-27T10:51:16.815Z,1.30
2023-04-27T10:56:20.944Z,1.98
2023-04-27T11:01:28.242Z,1.20
2023-04-27T11:06:35.170Z,1.13
2023-04-27T11:11:38.209Z,1.20
2023-04-27T11:16:47.493Z,1.83
2023-04-27T11:21:51.101Z,1.27
2023-04-27T11:26:55.141Z,1.10
2023-04-27T11:31:58.247Z,1.15
2023-04-27T11:37:17.333Z,1.10
2023-04-27T11:42:25.179Z,1.20
2023-04-27T11:47:31.398Z,1.20
2023-04-27T11:57:43.976Z,1.10
2023-04-27T12:02:47.085Z,0.95
2023-04-27T12:07:50.793Z,0.70
2023-04-27T12:12:55.211Z,0.80
2023-04-27T12:17:58.765Z,0.90
2023-04-27T12:23:02.577Z,0.85
2023-04-27T12:28:06.690Z,1.05
2023-04-27T12:33:11.447Z,0.77
2023-04-27T12:38:14.805Z,0.70
2023-04-27T12:43:18.545Z,0.93
2023-04-27T12:48:28.812Z,0.90
2023-04-27T12:53:33.116Z,0.90
2023-04-27T12:58:36.779Z,0.73
2023-04-27T13:03:40.391Z,0.65
2023-04-27T13:08:44.174Z,0.80
2023-04-27T13:13:48.150Z,0.90
2023-04-27T13:18:52.566Z,0.65
2023-04-27T13:23:59.581Z,0.80
2023-04-27T13:29:05.049Z,1.25
2023-04-27T13:34:08.997Z,0.70
2023-04-27T13:39:13.269Z,1.38
2023-04-27T13:44:17.322Z,0.73
2023-04-27T13:49:21.536Z,1.40
2023-04-27T13:54:25.496Z,1.00
2023-04-27T13:59:29.361Z,0.70
2023-04-27T14:04:32.572Z,0.88
2023-04-27T14:09:36.644Z,1.10
2023-04-27T14:14:40.706Z,0.80
2023-04-27T14:19:44.101Z,0.80
2023-04-27T14:24:47.559Z,0.60
2023-04-27T14:29:51.707Z,0.77
2023-04-27T14:34:55.235Z,0.90
2023-04-27T14:39:58.972Z,1.00
2023-04-27T14:45:02.484Z,1.00
2023-04-27T14:50:07.178Z,1.15
2023-04-27T14:55:12.184Z,0.68
2023-04-27T15:00:16.062Z,0.70
2023-04-27T15:05:19.384Z,0.90
2023-04-27T15:10:23.070Z,0.75
2023-04-27T15:15:26.510Z,0.70
2023-04-27T15:20:29.968Z,1.00
2023-04-27T15:25:33.613Z,1.35
2023-04-27T15:30:37.112Z,2.20
2023-04-27T15:35:41.030Z,0.80
2023-04-27T15:40:44.386Z,1.02
2023-04-27T15:45:48.267Z,1.30
2023-04-27T15:50:52.586Z,1.08
2023-04-27T15:55:56.499Z,0.88
2023-04-27T16:01:00.853Z,0.90
2023-04-27T16:06:04.480Z,1.20
2023-04-27T16:11:08.168Z,1.52
2023-04-27T16:16:11.833Z,1.90
2023-04-27T16:21:15.434Z,1.40
2023-04-27T16:26:19.303Z,0.80
2023-04-27T16:31:23.307Z,1.38
2023-04-27T16:36:28.130Z,1.25
2023-04-27T16:41:31.565Z,1.08
2023-04-27T16:46:35.157Z,3.45
2023-04-27T16:51:39.246Z,1.33
2023-04-27T16:56:43.621Z,1.70
2023-04-27T17:01:47.332Z,2.45
2023-04-27T17:06:51.349Z,1.50
2023-04-27T17:11:55.845Z,1.60
2023-04-27T17:17:03.941Z,1.30
2023-04-27T17:22:10.960Z,1.88
2023-04-27T17:27:15.180Z,1.50
2023-04-27T17:32:18.986Z,1.70
2023-04-27T17:37:23.131Z,1.75
2023-04-27T17:42:26.804Z,2.00
2023-04-27T17:47:31.204Z,2.40
2023-04-27T17:52:34.701Z,2.28
2023-04-27T17:57:38.683Z,2.10
2023-04-27T18:02:42.024Z,1.65
2023-04-27T18:07:47.088Z,1.70
2023-04-27T18:12:50.553Z,2.00
2023-04-27T18:17:53.731Z,1.83
2023-04-27T18:22:57.482Z,3.63
2023-04-27T18:28:01.562Z,3.22
2023-04-27T18:33:05.876Z,3.08
2023-04-27T18:38:09.872Z,2.47
2023-04-27T18:43:13.294Z,2.60
2023-04-27T18:48:16.244Z,3.03
2023-04-27T18:53:19.780Z,2.55
2023-04-27T18:58:22.756Z,3.20
2023-04-27T19:03:25.812Z,2.10
2023-04-27T19:08:29.243Z,1.85
2023-04-27T19:13:32.302Z,2.30
2023-04-27T19:18:36.503Z,2.85
2023-04-27T19:23:40.168Z,2.50
2023-04-27T19:28:44.308Z,2.60
2023-04-27T19:38:58.336Z,1.63
2023-04-27T19:44:02.353Z,1.77
2023-04-27T19:49:06.787Z,1.58
2023-04-27T19:54:10.296Z,1.92
2023-04-27T19:59:13.325Z,1.75
2023-04-27T20:04:18.711Z,1.73
2023-04-27T20:09:21.948Z,1.98
2023-04-27T20:14:25.332Z,1.50
2023-04-27T20:19:28.723Z,2.05
2023-04-27T20:24:31.689Z,1.77
2023-04-27T20:29:34.854Z,2.10
2023-04-27T20:34:37.814Z,2.03
2023-04-27T20:39:41.714Z,2.15
2023-04-27T20:44:48.703Z,2.42
2023-04-27T20:49:51.659Z,2.63
2023-04-27T20:54:54.506Z,2.58
2023-04-27T20:59:57.348Z,3.10
2023-04-27T21:05:00.548Z,2.92
2023-04-27T21:10:06.491Z,3.58
2023-04-27T21:15:09.850Z,3.08
2023-04-27T21:20:13.110Z,3.42
2023-04-27T21:25:16.600Z,3.22
2023-04-27T21:30:19.809Z,3.00
2023-04-27T21:35:23.182Z,2.83
2023-04-27T21:40:26.356Z,3.08
2023-04-27T21:45:29.363Z,2.90
2023-04-27T21:50:32.374Z,2.53
2023-04-27T21:55:35.271Z,2.67
2023-04-27T22:00:39.052Z,2.95
2023-04-27T22:05:42.155Z,2.25
2023-04-27T22:10:45.555Z,2.72
2023-04-27T22:15:49.054Z,2.00
2023-04-27T22:20:52.147Z,2.13
2023-04-27T22:25:55.220Z,2.65
2023-04-27T22:30:58.273Z,3.22
2023-04-27T22:36:01.472Z,1.83
2023-04-27T22:41:04.656Z,2.17
2023-04-27T22:46:07.581Z,2.17
2023-04-27T22:51:11.064Z,1.45
2023-04-27T22:56:14.196Z,2.08
2023-04-27T23:01:17.434Z,2.22
2023-04-27T23:06:20.594Z,1.65
2023-04-27T23:11:24.430Z,1.85
2023-04-27T23:16:27.363Z,1.60
2023-04-27T23:21:30.282Z,1.63
2023-04-27T23:26:33.297Z,1.60
2023-04-27T23:31:36.314Z,1.98
2023-04-27T23:36:39.826Z,1.73
2023-04-27T23:41:42.653Z,1.80
2023-04-27T23:46:45.565Z,1.45
2023-04-27T23:51:50.360Z,1.67
2023-04-27T23:56:53.479Z,1.83
